createdAt,value
2023-05-14T00:00:06.449Z,8.08
2023-05-14T00:02:34.423Z,8.06
2023-05-14T00:05:00.878Z,8.02
2023-05-14T00:07:31.147Z,8.04
2023-05-14T00:09:58.352Z,7.99
2023-05-14T00:12:26.292Z,7.95
2023-05-14T00:14:54.436Z,7.96
2023-05-14T00:17:22.258Z,7.84
2023-05-14T00:19:48.797Z,7.76
2023-05-14T00:22:15.422Z,7.68
2023-05-14T00:24:43.169Z,7.69
2023-05-14T00:27:10.173Z,7.70
2023-05-14T00:29:36.552Z,7.75
2023-05-14T00:32:04.178Z,7.81
2023-05-14T00:34:30.580Z,7.85
2023-05-14T00:36:57.695Z,7.84
2023-05-14T00:39:24.081Z,7.86
2023-05-14T00:41:51.063Z,7.81
2023-05-14T00:44:17.487Z,7.82
2023-05-14T00:46:44.076Z,7.74
2023-05-14T00:49:11.171Z,7.64
2023-05-14T00:51:38.063Z,7.61
2023-05-14T00:54:05.301Z,7.61
2023-05-14T00:56:31.801Z,7.63
2023-05-14T00:58:58.814Z,7.62
2023-05-14T01:01:28.371Z,7.62
2023-05-14T01:03:57.899Z,7.58
2023-05-14T01:07:10.323Z,7.58
2023-05-14T01:09:45.108Z,7.47
2023-05-14T01:12:14.342Z,7.45
2023-05-14T01:15:01.971Z,7.43
2023-05-14T01:17:32.750Z,7.41
2023-05-14T01:20:00.691Z,7.40
2023-05-14T01:22:27.206Z,7.36
2023-05-14T01:24:54.046Z,7.31
2023-05-14T01:27:42.601Z,7.28
2023-05-14T01:30:23.881Z,7.28
2023-05-14T01:32:56.434Z,7.18
2023-05-14T01:35:27.604Z,7.15
2023-05-14T01:37:57.808Z,7.17
2023-05-14T01:40:25.062Z,7.13
2023-05-14T01:42:53.828Z,7.14
2023-05-14T01:45:21.606Z,7.19
2023-05-14T01:47:48.528Z,7.19
2023-05-14T01:50:15.082Z,7.21
2023-05-14T01:52:42.297Z,7.22
2023-05-14T01:55:09.045Z,7.24
2023-05-14T01:57:36.941Z,7.26
2023-05-14T02:00:04.657Z,7.17
2023-05-14T02:02:32.279Z,7.11
2023-05-14T02:04:58.958Z,6.94
2023-05-14T02:07:25.488Z,6.88
2023-05-14T02:09:52.062Z,6.86
2023-05-14T02:12:18.422Z,6.83
2023-05-14T02:14:44.794Z,6.76
2023-05-14T02:17:11.973Z,6.70
2023-05-14T02:19:38.367Z,6.67
2023-05-14T02:22:05.174Z,6.67
2023-05-14T02:24:31.650Z,6.69
2023-05-14T02:27:01.284Z,6.72
2023-05-14T02:29:27.833Z,6.72
2023-05-14T02:31:54.759Z,6.71
2023-05-14T02:34:21.268Z,6.73
2023-05-14T02:36:47.743Z,6.78
2023-05-14T02:39:14.146Z,6.74
2023-05-14T02:41:40.659Z,6.73
2023-05-14T02:44:07.095Z,6.71
2023-05-14T02:46:33.856Z,6.66
2023-05-14T02:49:00.425Z,6.66
2023-05-14T02:51:27.187Z,6.68
2023-05-14T02:53:53.878Z,6.64
2023-05-14T02:56:21.147Z,6.59
2023-05-14T02:58:47.814Z,6.54
2023-05-14T03:01:14.537Z,6.41
2023-05-14T03:03:41.295Z,6.32
2023-05-14T03:06:08.199Z,6.30
2023-05-14T03:08:34.590Z,6.25
2023-05-14T03:11:01.351Z,6.26
2023-05-14T03:13:27.873Z,6.26
2023-05-14T03:15:56.994Z,6.23
2023-05-14T03:18:23.528Z,6.22
2023-05-14T03:20:49.884Z,6.22
2023-05-14T03:23:16.805Z,6.19
2023-05-14T03:25:43.363Z,6.19
2023-05-14T03:28:10.412Z,6.18
2023-05-14T03:30:37.259Z,6.17
2023-05-14T03:33:05.038Z,6.11
2023-05-14T03:35:31.523Z,6.07
2023-05-14T03:37:59.616Z,6.04
2023-05-14T03:40:26.291Z,6.02
2023-05-14T03:42:53.312Z,5.97
2023-05-14T03:45:20.982Z,5.97
2023-05-14T03:47:47.710Z,6.03
2023-05-14T03:50:14.850Z,6.09
2023-05-14T03:52:41.894Z,6.28
2023-05-14T03:55:09.083Z,6.28
2023-05-14T03:57:36.629Z,6.30
2023-05-14T04:00:04.362Z,6.29
2023-05-14T04:02:31.005Z,6.24
2023-05-14T04:04:57.648Z,6.27
2023-05-14T04:07:24.074Z,6.27
2023-05-14T04:09:50.501Z,6.29
2023-05-14T04:12:18.272Z,6.36
2023-05-14T04:14:44.640Z,6.27
2023-05-14T04:17:11.114Z,6.27
2023-05-14T04:19:37.541Z,6.26
2023-05-14T04:22:04.161Z,6.30
2023-05-14T04:24:30.922Z,6.36
2023-05-14T04:26:57.324Z,6.39
2023-05-14T04:29:23.952Z,6.40
2023-05-14T04:31:50.580Z,6.38
2023-05-14T04:34:17.216Z,6.44
2023-05-14T04:36:43.602Z,6.73
2023-05-14T04:39:12.462Z,7.17
2023-05-14T04:41:40.471Z,8.74
2023-05-14T04:44:07.090Z,11.02
2023-05-14T04:46:34.062Z,11.91
2023-05-14T04:49:00.645Z,11.70
2023-05-14T04:51:27.800Z,12.32
2023-05-14T04:53:54.197Z,13.18
2023-05-14T04:56:21.351Z,14.15
2023-05-14T04:58:47.890Z,14.77
2023-05-14T05:01:15.495Z,15.14
2023-05-14T05:03:42.336Z,16.69
2023-05-14T05:06:09.034Z,17.85
2023-05-14T05:08:36.765Z,18.05
2023-05-14T05:11:03.256Z,18.80
2023-05-14T05:13:30.020Z,19.34
2023-05-14T05:15:56.475Z,18.89
2023-05-14T05:18:23.210Z,19.01
2023-05-14T05:20:49.629Z,19.39
2023-05-14T05:23:16.651Z,18.89
2023-05-14T05:25:43.046Z,18.66
2023-05-14T05:28:09.839Z,18.60
2023-05-14T05:30:36.718Z,18.42
2023-05-14T05:33:03.455Z,17.80
2023-05-14T05:35:30.397Z,17.84
2023-05-14T05:38:00.518Z,17.41
2023-05-14T05:40:27.873Z,17.03
2023-05-14T05:42:54.456Z,16.65
2023-05-14T05:45:20.950Z,16.57
2023-05-14T05:47:47.353Z,16.49
2023-05-14T05:50:14.990Z,16.92
2023-05-14T05:52:41.506Z,16.18
2023-05-14T05:55:08.341Z,15.92
2023-05-14T05:57:35.048Z,15.64
2023-05-14T06:00:12.525Z,15.75
2023-05-14T06:02:40.436Z,15.63
2023-05-14T06:05:08.482Z,15.86
2023-05-14T06:07:36.814Z,15.17
2023-05-14T06:10:03.661Z,14.83
2023-05-14T06:12:30.278Z,14.32
2023-05-14T06:14:58.293Z,14.25
2023-05-14T06:17:25.419Z,13.81
2023-05-14T06:19:52.724Z,13.64
2023-05-14T06:22:19.574Z,13.47
2023-05-14T06:24:46.308Z,13.27
2023-05-14T06:27:12.764Z,13.38
2023-05-14T06:29:39.666Z,13.38
2023-05-14T06:32:06.745Z,13.35
2023-05-14T06:34:33.256Z,13.31
2023-05-14T06:37:00.282Z,13.37
2023-05-14T06:39:26.788Z,13.05
2023-05-14T06:41:53.653Z,13.02
2023-05-14T06:44:20.130Z,12.92
2023-05-14T06:46:46.525Z,12.88
2023-05-14T06:49:13.416Z,12.91
2023-05-14T06:51:40.689Z,12.97
2023-05-14T06:54:07.426Z,12.98
2023-05-14T06:56:34.450Z,13.12
2023-05-14T06:59:00.944Z,13.34
2023-05-14T07:01:27.739Z,13.43
2023-05-14T07:03:54.203Z,13.66
2023-05-14T07:06:21.267Z,13.87
2023-05-14T07:08:47.860Z,14.09
2023-05-14T07:11:14.664Z,14.29
2023-05-14T07:13:42.056Z,14.47
2023-05-14T07:16:11.357Z,14.50
2023-05-14T07:18:37.947Z,14.60
2023-05-14T07:21:07.189Z,14.70
2023-05-14T07:23:36.356Z,14.89
2023-05-14T07:26:03.336Z,14.99
2023-05-14T07:28:29.916Z,15.04
2023-05-14T07:30:56.333Z,15.09
2023-05-14T07:33:23.631Z,15.07
2023-05-14T07:35:50.708Z,15.08
2023-05-14T07:38:17.745Z,15.08
2023-05-14T07:40:44.291Z,15.29
2023-05-14T07:43:11.026Z,15.50
2023-05-14T07:45:39.120Z,15.62
2023-05-14T07:48:06.276Z,15.60
2023-05-14T07:50:32.875Z,15.73
2023-05-14T07:52:59.705Z,15.86
2023-05-14T07:55:26.643Z,15.80
2023-05-14T07:57:53.231Z,15.88
2023-05-14T08:00:19.713Z,15.87
2023-05-14T08:02:46.978Z,15.71
2023-05-14T08:05:13.424Z,15.65
2023-05-14T08:07:40.143Z,15.79
2023-05-14T08:10:07.682Z,15.94
2023-05-14T08:12:34.253Z,16.05
2023-05-14T08:15:00.633Z,16.23
2023-05-14T08:17:27.710Z,16.36
2023-05-14T08:19:54.321Z,16.33
2023-05-14T08:22:22.017Z,16.26
2023-05-14T08:24:48.842Z,16.16
2023-05-14T08:27:16.536Z,16.22
2023-05-14T08:29:44.231Z,16.38
2023-05-14T08:32:22.156Z,16.56
2023-05-14T08:34:50.643Z,16.47
2023-05-14T08:37:17.157Z,16.55
2023-05-14T08:39:44.730Z,16.65
2023-05-14T08:42:12.912Z,16.60
2023-05-14T08:44:47.620Z,16.68
2023-05-14T08:47:16.107Z,16.82
2023-05-14T08:49:46.277Z,16.76
2023-05-14T08:52:13.214Z,16.85
2023-05-14T08:54:42.643Z,17.13
2023-05-14T08:57:09.999Z,17.28
2023-05-14T08:59:36.758Z,17.14
2023-05-14T09:02:06.208Z,17.37
2023-05-14T09:04:34.833Z,17.43
2023-05-14T09:07:04.364Z,17.60
2023-05-14T09:09:31.034Z,17.69
2023-05-14T09:11:57.741Z,17.78
2023-05-14T09:14:24.365Z,18.06
2023-05-14T09:16:51.655Z,18.26
2023-05-14T09:19:19.231Z,18.17
2023-05-14T09:21:48.275Z,18.01
2023-05-14T09:24:22.946Z,18.04
2023-05-14T09:26:54.005Z,18.45
2023-05-14T09:29:20.556Z,18.61
2023-05-14T09:31:51.853Z,18.10
2023-05-14T09:34:29.069Z,17.95
2023-05-14T09:37:01.224Z,17.91
2023-05-14T09:39:29.029Z,17.73
2023-05-14T09:41:56.185Z,17.33
2023-05-14T09:44:23.579Z,17.30
2023-05-14T09:46:51.121Z,17.18
2023-05-14T09:49:18.285Z,17.66
2023-05-14T09:51:44.789Z,17.80
2023-05-14T09:54:11.449Z,17.79
2023-05-14T09:56:39.408Z,18.00
2023-05-14T09:59:06.004Z,18.11
2023-05-14T10:01:35.368Z,17.93
2023-05-14T10:04:05.587Z,17.93
2023-05-14T10:06:37.274Z,17.81
2023-05-14T10:09:08.413Z,18.12
2023-05-14T10:11:37.883Z,17.97
2023-05-14T10:14:18.613Z,17.73
2023-05-14T10:16:50.841Z,17.94
2023-05-14T10:19:20.044Z,18.08
2023-05-14T10:21:56.008Z,18.07
2023-05-14T10:24:22.900Z,18.15
2023-05-14T10:26:49.563Z,18.49
2023-05-14T10:29:16.494Z,18.40
2023-05-14T10:31:54.158Z,18.31
2023-05-14T10:34:44.550Z,18.45
2023-05-14T10:37:16.022Z,18.82
2023-05-14T10:39:57.745Z,19.10
2023-05-14T10:42:28.194Z,19.15
2023-05-14T10:44:58.449Z,19.12
2023-05-14T10:47:27.023Z,18.97
2023-05-14T10:49:55.734Z,19.28
2023-05-14T10:52:24.838Z,19.58
2023-05-14T10:54:55.808Z,19.92
2023-05-14T10:57:24.399Z,20.26
2023-05-14T10:59:54.734Z,19.76
2023-05-14T11:02:26.492Z,19.55
2023-05-14T11:04:54.674Z,19.52
2023-05-14T11:07:28.729Z,19.63
2023-05-14T11:10:04.987Z,19.80
2023-05-14T11:12:32.409Z,19.81
2023-05-14T11:15:01.089Z,19.30
2023-05-14T11:17:28.594Z,19.27
2023-05-14T11:19:56.708Z,19.28
2023-05-14T11:22:23.968Z,19.42
2023-05-14T11:24:51.234Z,19.75
2023-05-14T11:27:19.031Z,19.97
2023-05-14T11:29:46.840Z,20.11
2023-05-14T11:32:14.735Z,20.11
2023-05-14T11:34:42.690Z,20.11
2023-05-14T11:37:10.185Z,19.57
2023-05-14T11:39:37.505Z,19.58
2023-05-14T11:42:12.239Z,19.34
2023-05-14T11:44:39.088Z,19.72
2023-05-14T11:47:06.365Z,20.13
2023-05-14T11:49:35.434Z,20.50
2023-05-14T11:52:04.381Z,20.97
2023-05-14T11:54:32.225Z,20.85
2023-05-14T11:57:00.228Z,20.94
2023-05-14T11:59:31.691Z,20.78
2023-05-14T12:02:02.591Z,21.06
2023-05-14T12:04:29.821Z,21.21
2023-05-14T12:06:58.915Z,21.05
2023-05-14T12:09:25.882Z,20.80
2023-05-14T12:11:53.144Z,20.66
2023-05-14T12:14:22.212Z,20.31
2023-05-14T12:16:49.905Z,19.94
2023-05-14T12:19:18.687Z,19.36
2023-05-14T12:21:48.043Z,19.29
2023-05-14T12:24:17.644Z,18.92
2023-05-14T12:26:49.334Z,18.80
2023-05-14T12:29:16.766Z,18.60
2023-05-14T12:31:48.029Z,18.68
2023-05-14T12:34:15.305Z,18.61
2023-05-14T12:36:42.533Z,18.68
2023-05-14T12:39:09.631Z,18.77
2023-05-14T12:41:36.960Z,18.93
2023-05-14T12:44:04.940Z,19.15
2023-05-14T12:46:32.367Z,19.32
2023-05-14T12:48:58.880Z,19.43
2023-05-14T12:51:28.377Z,19.61
2023-05-14T12:53:54.912Z,19.79
2023-05-14T12:56:27.913Z,19.54
2023-05-14T12:58:57.671Z,19.52
2023-05-14T13:01:25.045Z,19.41
2023-05-14T13:03:51.902Z,19.30
2023-05-14T13:06:18.397Z,18.95
2023-05-14T13:08:44.928Z,18.84
2023-05-14T13:11:11.610Z,18.85
2023-05-14T13:13:37.964Z,18.78
2023-05-14T13:16:05.086Z,18.77
2023-05-14T13:18:31.532Z,18.61
2023-05-14T13:20:58.382Z,18.67
2023-05-14T13:23:24.804Z,18.62
2023-05-14T13:25:51.261Z,18.69
2023-05-14T13:28:18.027Z,19.15
2023-05-14T13:31:04.462Z,19.61
2023-05-14T13:33:31.303Z,20.16
2023-05-14T13:35:57.716Z,20.63
2023-05-14T13:38:24.332Z,20.82
2023-05-14T13:40:50.794Z,20.58
2023-05-14T13:43:17.367Z,20.63
2023-05-14T13:45:43.767Z,20.92
2023-05-14T13:48:10.875Z,20.90
2023-05-14T13:50:37.780Z,21.14
2023-05-14T13:53:04.243Z,21.11
2023-05-14T13:55:30.786Z,21.21
2023-05-14T13:57:57.633Z,20.93
2023-05-14T14:00:24.224Z,21.44
2023-05-14T14:02:51.308Z,21.38
2023-05-14T14:05:17.930Z,21.30
2023-05-14T14:08:13.113Z,21.02
2023-05-14T14:10:49.565Z,20.53
2023-05-14T14:13:16.147Z,20.22
2023-05-14T14:15:43.645Z,20.14
2023-05-14T14:18:10.236Z,20.16
2023-05-14T14:20:37.177Z,20.20
2023-05-14T14:23:04.157Z,20.45
2023-05-14T14:25:30.567Z,20.79
2023-05-14T14:27:57.074Z,21.30
2023-05-14T14:30:23.666Z,21.53
2023-05-14T14:32:50.563Z,21.40
2023-05-14T14:35:19.108Z,20.86
2023-05-14T14:37:49.526Z,20.52
2023-05-14T14:40:17.140Z,20.25
2023-05-14T14:42:44.455Z,19.30
2023-05-14T14:45:11.885Z,18.73
2023-05-14T14:47:38.741Z,18.36
2023-05-14T14:50:06.410Z,17.89
2023-05-14T14:52:33.582Z,17.90
2023-05-14T14:54:59.961Z,17.89
2023-05-14T14:57:27.055Z,17.77
2023-05-14T14:59:53.554Z,17.66
2023-05-14T15:02:20.154Z,17.76
2023-05-14T15:04:47.005Z,17.62
2023-05-14T15:07:15.836Z,17.55
2023-05-14T15:09:42.301Z,17.46
2023-05-14T15:12:10.321Z,17.51
2023-05-14T15:14:37.196Z,17.53
2023-05-14T15:17:03.957Z,17.55
2023-05-14T15:19:32.877Z,17.65
2023-05-14T15:21:59.299Z,17.83
2023-05-14T15:24:26.554Z,18.02
2023-05-14T15:26:53.738Z,18.07
2023-05-14T15:29:20.459Z,18.22
2023-05-14T15:31:47.831Z,18.18
2023-05-14T15:34:14.475Z,18.26
2023-05-14T15:36:41.286Z,18.34
2023-05-14T15:39:10.530Z,18.45
2023-05-14T15:41:38.002Z,18.43
2023-05-14T15:44:04.622Z,18.65
2023-05-14T15:46:31.462Z,18.88
2023-05-14T15:48:58.547Z,19.09
2023-05-14T15:51:25.087Z,19.64
2023-05-14T15:53:54.016Z,19.91
2023-05-14T15:56:21.866Z,20.35
2023-05-14T15:58:48.902Z,20.59
2023-05-14T16:01:15.466Z,20.50
2023-05-14T16:03:42.267Z,20.46
2023-05-14T16:06:08.834Z,20.31
2023-05-14T16:08:35.424Z,20.26
2023-05-14T16:11:02.217Z,20.46
2023-05-14T16:13:28.713Z,20.58
2023-05-14T16:15:55.683Z,20.52
2023-05-14T16:18:22.580Z,20.50
2023-05-14T16:20:49.049Z,20.33
2023-05-14T16:23:15.882Z,20.53
2023-05-14T16:25:42.303Z,20.55
2023-05-14T16:28:08.876Z,20.43
2023-05-14T16:30:35.262Z,20.56
2023-05-14T16:33:01.731Z,20.41
2023-05-14T16:35:28.198Z,20.54
2023-05-14T16:37:54.693Z,20.58
2023-05-14T16:40:23.825Z,20.42
2023-05-14T16:42:51.677Z,20.48
2023-05-14T16:45:18.750Z,20.49
2023-05-14T16:47:45.750Z,20.37
2023-05-14T16:50:12.155Z,20.36
2023-05-14T16:52:38.916Z,20.27
2023-05-14T16:55:06.013Z,20.26
2023-05-14T16:57:32.776Z,20.23
2023-05-14T16:59:59.206Z,20.15
2023-05-14T17:02:26.133Z,20.00
2023-05-14T17:04:54.108Z,19.78
2023-05-14T17:07:22.123Z,19.52
2023-05-14T17:09:48.614Z,19.33
2023-05-14T17:12:15.307Z,19.13
2023-05-14T17:14:41.788Z,18.96
2023-05-14T17:17:08.289Z,18.80
2023-05-14T17:19:34.638Z,18.74
2023-05-14T17:22:01.503Z,18.67
2023-05-14T17:24:27.932Z,18.64
2023-05-14T17:26:54.803Z,18.65
2023-05-14T17:29:21.306Z,18.78
2023-05-14T17:31:48.514Z,18.85
2023-05-14T17:34:15.129Z,18.76
2023-05-14T17:36:41.816Z,18.90
2023-05-14T17:39:08.260Z,18.73
2023-05-14T17:41:35.237Z,18.74
2023-05-14T17:44:02.044Z,18.70
2023-05-14T17:46:28.757Z,18.80
2023-05-14T17:48:55.310Z,18.66
2023-05-14T17:51:22.217Z,18.78
2023-05-14T17:53:48.612Z,18.88
2023-05-14T17:56:17.152Z,18.78
2023-05-14T17:58:43.811Z,18.76
2023-05-14T18:01:10.286Z,18.68
2023-05-14T18:03:36.956Z,18.59
2023-05-14T18:06:03.906Z,18.38
2023-05-14T18:08:30.499Z,18.21
2023-05-14T18:10:58.007Z,18.16
2023-05-14T18:13:24.931Z,17.92
2023-05-14T18:15:54.333Z,17.88
2023-05-14T18:18:22.123Z,17.62
2023-05-14T18:20:49.450Z,17.60
2023-05-14T18:23:16.044Z,17.52
2023-05-14T18:25:42.792Z,17.31
2023-05-14T18:28:09.563Z,17.14
2023-05-14T18:30:36.527Z,17.08
2023-05-14T18:33:03.714Z,17.03
2023-05-14T18:35:30.772Z,17.06
2023-05-14T18:37:57.612Z,16.88
2023-05-14T18:40:24.289Z,16.78
2023-05-14T18:42:51.242Z,16.71
2023-05-14T18:45:17.783Z,16.65
2023-05-14T18:47:44.370Z,16.59
2023-05-14T18:50:11.066Z,16.56
2023-05-14T18:52:38.431Z,16.52
2023-05-14T18:55:05.370Z,16.45
2023-05-14T18:57:35.188Z,16.42
2023-05-14T19:00:02.014Z,16.46
2023-05-14T19:02:29.069Z,16.40
2023-05-14T19:04:55.630Z,16.18
2023-05-14T19:07:22.205Z,16.02
2023-05-14T19:09:48.849Z,15.97
2023-05-14T19:12:15.373Z,15.89
2023-05-14T19:14:42.064Z,15.75
2023-05-14T19:17:08.911Z,15.71
2023-05-14T19:19:35.443Z,15.65
2023-05-14T19:22:02.310Z,15.77
2023-05-14T19:24:28.930Z,15.62
2023-05-14T19:26:55.999Z,15.60
2023-05-14T19:29:22.401Z,15.53
2023-05-14T19:31:49.345Z,15.46
2023-05-14T19:34:15.905Z,15.37
2023-05-14T19:36:42.537Z,15.33
2023-05-14T19:39:08.969Z,15.31
2023-05-14T19:41:35.400Z,15.21
2023-05-14T19:44:01.918Z,15.17
2023-05-14T19:46:28.563Z,15.03
2023-05-14T19:48:54.997Z,15.00
2023-05-14T19:51:21.629Z,14.91
2023-05-14T19:53:48.037Z,14.91
2023-05-14T19:56:15.709Z,14.83
2023-05-14T19:58:42.111Z,14.80
2023-05-14T20:01:09.218Z,14.74
2023-05-14T20:03:35.753Z,14.75
2023-05-14T20:06:02.665Z,14.69
2023-05-14T20:08:29.379Z,14.65
2023-05-14T20:10:56.285Z,14.53
2023-05-14T20:13:25.057Z,14.45
2023-05-14T20:15:52.016Z,14.43
2023-05-14T20:18:18.459Z,14.44
2023-05-14T20:20:44.894Z,14.50
2023-05-14T20:23:11.590Z,14.34
2023-05-14T20:25:38.053Z,14.18
2023-05-14T20:28:04.497Z,14.06
2023-05-14T20:30:31.139Z,13.96
2023-05-14T20:32:57.842Z,13.88
2023-05-14T20:35:24.375Z,13.78
2023-05-14T20:37:51.369Z,13.74
2023-05-14T20:40:17.755Z,13.78
2023-05-14T20:42:44.618Z,13.80
2023-05-14T20:45:11.475Z,13.68
2023-05-14T20:47:37.886Z,13.59
2023-05-14T20:50:05.211Z,13.53
2023-05-14T20:52:31.661Z,13.48
2023-05-14T20:55:01.862Z,13.32
2023-05-14T20:57:28.892Z,13.28
2023-05-14T20:59:55.385Z,13.31
2023-05-14T21:02:21.919Z,13.08
2023-05-14T21:04:48.583Z,12.95
2023-05-14T21:07:15.300Z,12.74
2023-05-14T21:09:41.958Z,12.65
2023-05-14T21:12:09.024Z,12.56
2023-05-14T21:14:36.940Z,12.54
2023-05-14T21:17:03.781Z,12.54
2023-05-14T21:19:30.263Z,12.56
2023-05-14T21:21:57.281Z,12.49
2023-05-14T21:24:23.824Z,12.44
2023-05-14T21:26:52.228Z,12.39
2023-05-14T21:29:19.851Z,12.35
2023-05-14T21:31:46.317Z,12.34
2023-05-14T21:34:13.251Z,12.22
2023-05-14T21:36:39.753Z,12.01
2023-05-14T21:39:07.352Z,11.91
2023-05-14T21:41:33.852Z,11.84
2023-05-14T21:44:00.352Z,11.75
2023-05-14T21:46:28.798Z,11.71
2023-05-14T21:48:56.863Z,11.72
2023-05-14T21:51:24.104Z,11.63
2023-05-14T21:53:50.523Z,11.44
2023-05-14T21:56:17.373Z,11.38
2023-05-14T21:58:45.285Z,11.40
2023-05-14T22:01:12.189Z,11.36
2023-05-14T22:03:38.766Z,11.34
2023-05-14T22:06:05.667Z,11.29
2023-05-14T22:08:32.558Z,11.25
2023-05-14T22:10:58.998Z,11.19
2023-05-14T22:13:25.551Z,11.12
2023-05-14T22:16:01.443Z,11.06
2023-05-14T22:18:36.476Z,10.99
2023-05-14T22:21:03.510Z,10.78
2023-05-14T22:23:30.955Z,10.78
2023-05-14T22:25:58.057Z,10.74
2023-05-14T22:28:24.551Z,10.78
2023-05-14T22:30:52.157Z,10.79
2023-05-14T22:33:19.273Z,10.72
2023-05-14T22:35:46.102Z,10.69
2023-05-14T22:38:13.499Z,10.61
2023-05-14T22:40:39.927Z,10.59
2023-05-14T22:43:06.343Z,10.64
2023-05-14T22:45:34.217Z,10.65
2023-05-14T22:48:01.046Z,10.66
2023-05-14T22:50:27.723Z,10.67
2023-05-14T22:52:54.092Z,10.61
2023-05-14T22:55:21.024Z,10.47
2023-05-14T22:57:47.404Z,10.41
2023-05-14T23:00:14.934Z,10.42
2023-05-14T23:02:41.465Z,10.46
2023-05-14T23:05:08.430Z,10.41
2023-05-14T23:07:35.188Z,10.32
2023-05-14T23:10:01.892Z,10.29
2023-05-14T23:12:28.324Z,10.29
2023-05-14T23:14:54.699Z,10.24
2023-05-14T23:17:21.142Z,10.20
2023-05-14T23:19:49.947Z,10.20
2023-05-14T23:22:16.429Z,10.21
2023-05-14T23:24:42.832Z,10.13
2023-05-14T23:27:10.839Z,10.05
2023-05-14T23:29:37.316Z,9.98
2023-05-14T23:32:03.928Z,9.87
2023-05-14T23:34:30.318Z,9.76
2023-05-14T23:36:57.140Z,9.74
2023-05-14T23:39:23.722Z,9.75
2023-05-14T23:41:50.318Z,9.71
2023-05-14T23:44:17.164Z,9.65
2023-05-14T23:46:44.794Z,9.63
2023-05-14T23:49:11.310Z,9.62
2023-05-14T23:51:37.732Z,9.63
2023-05-14T23:54:04.965Z,9.60
2023-05-14T23:56:31.785Z,9.61
2023-05-14T23:58:58.350Z,9.62
